createdAt,value
2019-02-03T00:02:06.286Z,11.40
2019-02-03T00:04:36.366Z,11.93
2019-02-03T00:07:07.161Z,12.07
2019-02-03T00:09:36.858Z,14.17
2019-02-03T00:12:06.825Z,14.53
2019-02-03T00:14:36.630Z,13.33
2019-02-03T00:17:06.518Z,14.97
2019-02-03T00:19:36.377Z,13.70
2019-02-03T00:22:07.810Z,12.20
2019-02-03T00:24:37.630Z,11.70
2019-02-03T00:27:08.344Z,11.47
2019-02-03T00:29:38.130Z,10.97
2019-02-03T00:32:07.945Z,10.63
2019-02-03T00:34:37.677Z,10.70
2019-02-03T00:37:15.285Z,10.87
2019-02-03T00:39:38.887Z,10.33
2019-02-03T00:42:10.985Z,9.83
2019-02-03T00:44:40.826Z,9.97
2019-02-03T00:47:10.597Z,9.47
2019-02-03T00:49:40.304Z,9.80
2019-02-03T00:52:10.150Z,10.70
2019-02-03T00:54:41.225Z,10.20
2019-02-03T00:57:11.086Z,9.50
2019-02-03T00:59:40.872Z,9.00
2019-02-03T01:02:11.645Z,8.50
2019-02-03T01:04:41.437Z,10.27
2019-02-03T01:07:14.017Z,10.30
2019-02-03T01:09:44.722Z,8.83
2019-02-03T01:12:14.559Z,10.27
2019-02-03T01:14:44.201Z,9.97
2019-02-03T01:17:13.951Z,8.57
2019-02-03T01:19:43.785Z,8.73
2019-02-03T01:22:16.453Z,8.00
2019-02-03T01:24:46.304Z,9.90
2019-02-03T01:27:16.081Z,8.03
2019-02-03T01:29:45.831Z,7.93
2019-02-03T01:32:15.609Z,8.40
2019-02-03T01:34:45.394Z,7.33
2019-02-03T01:37:15.173Z,6.63
2019-02-03T01:39:44.932Z,7.17
2019-02-03T01:42:14.627Z,6.73
2019-02-03T01:44:44.758Z,7.80
2019-02-03T01:47:14.673Z,6.97
2019-02-03T01:49:44.450Z,8.00
2019-02-03T01:52:14.290Z,6.80
2019-02-03T01:54:44.040Z,6.83
2019-02-03T01:57:14.170Z,7.60
2019-02-03T01:59:43.931Z,7.90
2019-02-03T02:02:13.745Z,7.30
2019-02-03T02:04:43.544Z,7.10
2019-02-03T02:07:13.348Z,6.93
2019-02-03T02:09:44.783Z,7.00
2019-02-03T02:12:14.613Z,7.77
2019-02-03T02:14:44.246Z,6.63
2019-02-03T02:17:13.984Z,7.80
2019-02-03T02:19:43.744Z,6.80
2019-02-03T02:22:13.426Z,6.90
2019-02-03T02:24:43.597Z,7.47
2019-02-03T02:27:13.273Z,6.80
2019-02-03T02:29:43.026Z,7.13
2019-02-03T02:32:12.899Z,6.63
2019-02-03T02:34:45.446Z,6.13
2019-02-03T02:37:15.675Z,6.60
2019-02-03T02:39:45.501Z,6.87
2019-02-03T02:42:16.750Z,6.30
2019-02-03T02:44:46.658Z,6.50
2019-02-03T02:47:17.497Z,5.90
2019-02-03T02:49:47.284Z,6.43
2019-02-03T02:52:16.982Z,6.50
2019-02-03T02:54:48.546Z,7.07
2019-02-03T02:57:18.331Z,7.07
2019-02-03T02:59:49.193Z,6.63
2019-02-03T03:02:18.970Z,5.83
2019-02-03T03:04:48.833Z,6.40
2019-02-03T03:07:18.457Z,7.10
2019-02-03T03:09:49.866Z,6.80
2019-02-03T03:12:19.805Z,6.13
2019-02-03T03:14:50.571Z,5.20
2019-02-03T03:17:20.326Z,6.23
2019-02-03T03:19:50.158Z,6.33
2019-02-03T03:22:20.926Z,6.20
2019-02-03T03:24:50.782Z,5.97
2019-02-03T03:27:20.702Z,6.13
2019-02-03T03:29:50.534Z,6.27
2019-02-03T03:32:20.329Z,5.83
2019-02-03T03:34:50.114Z,6.17
2019-02-03T03:37:19.896Z,5.60
2019-02-03T03:39:49.660Z,6.17
2019-02-03T03:42:19.650Z,6.00
2019-02-03T03:44:49.481Z,6.73
2019-02-03T03:47:22.460Z,6.10
2019-02-03T03:49:52.087Z,5.97
2019-02-03T03:52:21.890Z,6.00
2019-02-03T03:54:51.886Z,6.00
2019-02-03T03:57:21.662Z,5.70
2019-02-03T03:59:51.431Z,5.77
2019-02-03T04:02:21.174Z,5.93
2019-02-03T04:04:50.983Z,6.00
2019-02-03T04:07:22.696Z,6.07
2019-02-03T04:09:52.550Z,5.40
2019-02-03T04:12:22.417Z,6.33
2019-02-03T04:14:53.842Z,5.70
2019-02-03T04:17:23.624Z,5.47
2019-02-03T04:19:53.277Z,4.83
2019-02-03T04:22:24.126Z,6.27
2019-02-03T04:24:53.913Z,6.50
2019-02-03T04:27:24.740Z,5.03
2019-02-03T04:29:56.293Z,5.57
2019-02-03T04:32:26.106Z,5.73
2019-02-03T04:34:57.518Z,5.20
2019-02-03T04:37:27.226Z,6.50
2019-02-03T04:39:56.981Z,5.30
2019-02-03T04:42:26.778Z,5.60
2019-02-03T04:44:56.614Z,6.10
2019-02-03T04:47:26.392Z,5.23
2019-02-03T04:49:56.080Z,5.23
2019-02-03T04:52:25.786Z,5.90
2019-02-03T04:54:55.562Z,5.13
2019-02-03T04:57:26.957Z,5.40
2019-02-03T04:59:57.851Z,6.20
2019-02-03T05:02:27.625Z,5.07
2019-02-03T05:04:57.203Z,6.23
2019-02-03T05:07:28.738Z,5.87
2019-02-03T05:09:58.721Z,7.37
2019-02-03T05:12:30.000Z,5.20
2019-02-03T05:14:59.765Z,5.20
2019-02-03T05:17:30.905Z,5.73
2019-02-03T05:20:03.015Z,5.47
2019-02-03T05:22:32.773Z,5.60
2019-02-03T05:25:03.734Z,5.73
2019-02-03T05:27:33.506Z,6.00
2019-02-03T05:30:03.336Z,4.80
2019-02-03T05:32:33.002Z,5.93
2019-02-03T05:35:02.858Z,4.63
2019-02-03T05:37:32.586Z,6.03
2019-02-03T05:40:02.455Z,5.30
2019-02-03T05:42:32.273Z,4.97
2019-02-03T05:45:03.473Z,4.83
2019-02-03T05:47:33.219Z,6.00
2019-02-03T05:50:03.078Z,5.00
2019-02-03T05:52:33.862Z,5.03
2019-02-03T05:55:03.713Z,4.83
2019-02-03T05:57:34.432Z,4.87
2019-02-03T06:00:05.880Z,4.50
2019-02-03T06:02:35.685Z,5.13
2019-02-03T06:05:06.906Z,4.27
2019-02-03T06:07:36.731Z,5.50
2019-02-03T06:10:08.993Z,5.27
2019-02-03T06:12:40.311Z,4.60
2019-02-03T06:15:10.374Z,5.20
2019-02-03T06:17:40.194Z,5.50
2019-02-03T06:20:11.194Z,4.90
2019-02-03T06:22:41.029Z,4.47
2019-02-03T06:25:12.585Z,4.37
2019-02-03T06:27:42.349Z,5.10
2019-02-03T06:30:57.845Z,4.90
2019-02-03T06:33:27.794Z,4.47
2019-02-03T06:35:57.456Z,5.00
2019-02-03T06:38:27.105Z,5.30
2019-02-03T06:40:56.802Z,4.67
2019-02-03T06:43:26.733Z,5.17
2019-02-03T06:46:24.650Z,5.37
2019-02-03T06:48:57.126Z,4.50
2019-02-03T06:51:26.981Z,4.80
2019-02-03T06:53:58.509Z,5.00
2019-02-03T06:56:29.342Z,5.00
2019-02-03T06:58:59.073Z,5.50
2019-02-03T07:01:28.762Z,5.00
2019-02-03T07:03:58.578Z,4.90
2019-02-03T07:06:29.382Z,4.97
2019-02-03T07:08:59.286Z,4.93
2019-02-03T07:11:29.149Z,4.90
2019-02-03T07:13:58.858Z,5.47
2019-02-03T07:16:40.195Z,4.43
2019-02-03T07:19:00.937Z,4.20
2019-02-03T07:21:30.936Z,4.57
2019-02-03T07:24:00.761Z,4.60
2019-02-03T07:26:30.654Z,4.27
2019-02-03T07:29:00.467Z,5.30
2019-02-03T07:31:30.301Z,4.90
2019-02-03T07:34:00.258Z,4.00
2019-02-03T07:36:30.329Z,4.60
2019-02-03T07:39:00.124Z,5.00
2019-02-03T07:41:29.892Z,4.70
2019-02-03T07:43:59.669Z,4.20
2019-02-03T07:46:29.282Z,4.20
2019-02-03T07:48:59.027Z,5.47
2019-02-03T07:51:28.787Z,4.60
2019-02-03T07:54:08.154Z,4.50
2019-02-03T07:56:30.285Z,4.63
2019-02-03T07:59:00.060Z,3.90
2019-02-03T08:01:30.223Z,4.83
2019-02-03T08:03:59.969Z,3.90
2019-02-03T08:06:29.670Z,4.67
2019-02-03T08:08:59.510Z,4.70
2019-02-03T08:11:29.298Z,4.67
2019-02-03T08:14:00.245Z,4.23
2019-02-03T08:16:30.069Z,4.30
2019-02-03T08:19:00.852Z,4.10
2019-02-03T08:21:32.250Z,4.70
2019-02-03T08:24:08.101Z,5.00
2019-02-03T08:26:39.882Z,4.70
2019-02-03T08:29:09.611Z,4.50
2019-02-03T08:31:39.345Z,4.37
2019-02-03T08:34:09.054Z,4.10
2019-02-03T08:36:38.880Z,3.83
2019-02-03T08:39:09.724Z,4.40
2019-02-03T08:41:39.487Z,4.67
2019-02-03T08:44:10.374Z,3.90
2019-02-03T08:46:39.985Z,5.30
2019-02-03T08:49:09.725Z,4.23
2019-02-03T08:51:39.593Z,4.50
2019-02-03T08:54:10.515Z,4.60
2019-02-03T08:56:40.381Z,5.10
2019-02-03T08:59:09.992Z,4.60
2019-02-03T09:01:40.870Z,5.13
2019-02-03T09:04:10.852Z,5.10
2019-02-03T09:06:40.862Z,4.40
2019-02-03T09:09:11.639Z,4.37
2019-02-03T09:11:42.673Z,4.70
2019-02-03T09:14:13.305Z,4.83
2019-02-03T09:16:43.131Z,5.50
2019-02-03T09:19:13.184Z,5.60
2019-02-03T09:21:42.896Z,4.50
2019-02-03T09:24:12.653Z,4.87
2019-02-03T09:26:42.434Z,5.20
2019-02-03T09:29:12.230Z,5.20
2019-02-03T09:31:42.133Z,5.67
2019-02-03T09:34:11.846Z,4.43
2019-02-03T09:36:41.602Z,5.37
2019-02-03T09:39:13.456Z,5.40
2019-02-03T09:41:44.914Z,4.73
2019-02-03T09:44:14.754Z,4.90
2019-02-03T09:46:44.355Z,5.60
2019-02-03T09:49:14.150Z,5.77
2019-02-03T09:51:43.932Z,4.80
2019-02-03T09:54:15.065Z,6.53
2019-02-03T09:56:45.128Z,3.70
2019-02-03T09:59:17.078Z,5.07
2019-02-03T10:01:46.685Z,4.83
2019-02-03T10:04:16.701Z,4.47
2019-02-03T10:06:46.426Z,4.73
2019-02-03T10:09:16.162Z,4.30
2019-02-03T10:11:46.047Z,4.40
2019-02-03T10:14:15.717Z,4.07
2019-02-03T10:16:47.523Z,4.10
2019-02-03T10:19:16.989Z,4.87
2019-02-03T10:21:47.747Z,3.87
2019-02-03T10:24:17.569Z,4.83
2019-02-03T10:26:47.323Z,3.93
2019-02-03T10:29:17.043Z,4.13
2019-02-03T10:31:46.869Z,4.57
2019-02-03T10:34:16.623Z,3.93
2019-02-03T10:36:46.489Z,4.37
2019-02-03T10:39:16.483Z,4.57
2019-02-03T10:41:46.398Z,3.63
2019-02-03T10:44:16.325Z,4.47
2019-02-03T10:46:45.915Z,3.83
2019-02-03T10:49:15.794Z,3.40
2019-02-03T10:51:47.189Z,4.10
2019-02-03T10:54:16.842Z,4.40
2019-02-03T10:56:46.637Z,4.17
2019-02-03T10:59:16.518Z,3.70
2019-02-03T11:01:47.234Z,4.17
2019-02-03T11:04:17.165Z,3.90
2019-02-03T11:06:50.542Z,3.80
2019-02-03T11:09:20.354Z,3.80
2019-02-03T11:11:50.176Z,3.60
2019-02-03T11:14:21.976Z,4.30
2019-02-03T11:16:51.650Z,4.00
2019-02-03T11:19:22.795Z,3.60
2019-02-03T11:21:52.410Z,4.03
2019-02-03T11:24:22.207Z,5.90
2019-02-03T11:26:53.005Z,2.90
2019-02-03T11:29:22.803Z,4.13
2019-02-03T11:31:54.299Z,3.77
2019-02-03T11:34:25.727Z,3.57
2019-02-03T11:36:55.688Z,3.20
2019-02-03T11:39:26.514Z,3.50
2019-02-03T11:41:59.073Z,3.80
2019-02-03T11:44:28.870Z,3.57
2019-02-03T11:46:59.590Z,3.73
2019-02-03T11:49:29.482Z,4.20
2019-02-03T11:51:59.469Z,3.70
2019-02-03T11:54:30.231Z,3.40
2019-02-03T11:56:59.978Z,3.60
2019-02-03T11:59:29.797Z,3.60
2019-02-03T12:02:01.390Z,2.93
2019-02-03T12:04:31.145Z,3.47
2019-02-03T12:07:02.482Z,5.00
2019-02-03T12:09:32.278Z,3.60
2019-02-03T12:12:02.106Z,4.50
2019-02-03T12:14:32.907Z,2.73
2019-02-03T12:17:02.766Z,3.70
2019-02-03T12:19:33.634Z,3.50
2019-02-03T12:22:03.359Z,3.30
2019-02-03T12:24:33.310Z,2.93
2019-02-03T12:27:04.103Z,3.30
2019-02-03T12:29:33.918Z,3.23
2019-02-03T12:32:03.997Z,4.30
2019-02-03T12:34:33.914Z,3.40
2019-02-03T12:37:03.758Z,4.30
2019-02-03T12:39:36.109Z,4.00
2019-02-03T12:42:13.292Z,3.57
2019-02-03T12:44:38.266Z,3.70
2019-02-03T12:47:09.382Z,2.90
2019-02-03T12:49:39.234Z,3.80
2019-02-03T12:52:09.122Z,4.07
2019-02-03T12:54:39.081Z,3.00
2019-02-03T12:57:09.090Z,3.40
2019-02-03T12:59:40.258Z,3.30
2019-02-03T13:02:11.412Z,3.23
2019-02-03T13:04:43.858Z,3.13
2019-02-03T13:07:30.251Z,3.53
2019-02-03T13:10:00.765Z,3.90
2019-02-03T13:12:33.254Z,3.43
2019-02-03T13:15:03.054Z,3.33
2019-02-03T13:17:33.086Z,3.17
2019-02-03T13:20:02.858Z,3.60
2019-02-03T13:22:32.602Z,3.40
2019-02-03T13:25:02.346Z,3.00
2019-02-03T13:27:31.978Z,2.77
2019-02-03T13:30:01.662Z,2.60
2019-02-03T13:32:31.594Z,3.53
2019-02-03T13:35:01.359Z,2.90
2019-02-03T13:37:31.102Z,3.40
2019-02-03T13:40:02.358Z,3.10
2019-02-03T13:42:37.556Z,3.00
2019-02-03T13:45:03.509Z,3.60
2019-02-03T13:47:34.801Z,2.57
2019-02-03T13:50:05.148Z,2.97
2019-02-03T13:52:34.968Z,3.33
2019-02-03T13:55:05.278Z,3.33
2019-02-03T13:57:35.124Z,3.30
2019-02-03T14:00:06.481Z,3.40
2019-02-03T14:02:38.010Z,3.40
2019-02-03T14:05:08.226Z,3.43
2019-02-03T14:07:41.112Z,3.40
2019-02-03T14:10:14.158Z,3.13
2019-02-03T14:12:49.529Z,2.53
2019-02-03T14:15:15.803Z,3.00
2019-02-03T14:17:45.610Z,3.20
2019-02-03T14:20:18.242Z,2.87
2019-02-03T14:22:48.192Z,3.27
2019-02-03T14:25:19.197Z,3.13
2019-02-03T14:27:49.258Z,2.63
2019-02-03T14:30:40.435Z,3.60
2019-02-03T14:48:48.226Z,2.60
2019-02-03T14:51:17.970Z,2.87
2019-02-03T14:53:47.721Z,2.80
2019-02-03T14:56:17.667Z,2.27
2019-02-03T14:58:47.445Z,2.67
2019-02-03T15:01:20.024Z,2.20
2019-02-03T15:03:49.759Z,3.10
2019-02-03T15:06:19.561Z,4.17
2019-02-03T15:08:50.398Z,3.57
2019-02-03T15:11:20.246Z,3.20
2019-02-03T15:13:50.101Z,3.50
2019-02-03T15:16:20.345Z,3.57
2019-02-03T15:18:52.983Z,3.60
2019-02-03T15:21:25.683Z,4.30
2019-02-03T15:23:58.163Z,2.60
2019-02-03T15:26:33.106Z,3.67
2019-02-03T15:29:09.943Z,3.17
2019-02-03T15:31:47.246Z,3.50
2019-02-03T15:34:24.313Z,4.77
2019-02-03T15:36:54.315Z,4.10
2019-02-03T15:39:24.130Z,3.27
2019-02-03T15:41:54.167Z,3.90
2019-02-03T15:44:23.939Z,3.10
2019-02-03T15:46:53.890Z,3.23
2019-02-03T15:49:23.687Z,3.17
2019-02-03T15:51:53.488Z,3.63
2019-02-03T15:54:23.329Z,4.23
2019-02-03T15:56:53.010Z,4.13
2019-02-03T15:59:22.841Z,3.77
2019-02-03T16:01:52.457Z,3.50
2019-02-03T16:04:23.277Z,3.20
2019-02-03T16:06:53.202Z,2.83
2019-02-03T16:09:22.978Z,3.57
2019-02-03T16:11:52.863Z,3.10
2019-02-03T16:14:23.591Z,3.67
2019-02-03T16:16:53.202Z,2.80
2019-02-03T16:19:23.061Z,3.97
2019-02-03T16:21:52.881Z,3.37
2019-02-03T16:24:27.034Z,3.97
2019-02-03T16:26:56.825Z,2.80
2019-02-03T16:29:26.450Z,3.40
2019-02-03T16:31:56.158Z,3.40
2019-02-03T16:34:26.180Z,3.97
2019-02-03T16:36:59.969Z,3.30
2019-02-03T16:39:30.137Z,3.50
2019-02-03T16:41:59.947Z,4.20
2019-02-03T16:44:30.757Z,3.67
2019-02-03T16:47:00.593Z,3.20
2019-02-03T16:49:32.063Z,3.30
2019-02-03T16:52:01.628Z,3.90
2019-02-03T16:54:31.657Z,3.20
2019-02-03T16:57:01.494Z,3.10
2019-02-03T16:59:31.277Z,4.10
2019-02-03T17:02:02.010Z,2.90
2019-02-03T17:04:33.408Z,3.50
2019-02-03T17:07:03.189Z,3.00
2019-02-03T17:09:33.975Z,4.37
2019-02-03T17:12:03.674Z,3.90
2019-02-03T17:14:33.778Z,4.03
2019-02-03T17:17:05.066Z,3.97
2019-02-03T17:19:34.801Z,4.47
2019-02-03T17:22:05.975Z,3.50
2019-02-03T17:24:37.034Z,3.50
2019-02-03T17:27:07.116Z,4.10
2019-02-03T17:29:36.938Z,4.40
2019-02-03T17:32:06.731Z,3.70
2019-02-03T17:34:36.529Z,3.47
2019-02-03T17:37:06.395Z,3.83
2019-02-03T17:39:36.261Z,3.37
2019-02-03T17:42:08.753Z,3.40
2019-02-03T17:44:37.379Z,4.50
2019-02-03T17:47:07.326Z,3.17
2019-02-03T17:49:38.782Z,4.40
2019-02-03T17:52:08.558Z,3.90
2019-02-03T17:54:38.493Z,3.17
2019-02-03T17:57:08.243Z,3.73
2019-02-03T17:59:38.025Z,3.50
2019-02-03T18:02:07.862Z,3.90
2019-02-03T18:04:41.066Z,3.20
2019-02-03T18:07:12.829Z,4.00
2019-02-03T18:09:44.194Z,3.33
2019-02-03T18:12:14.006Z,3.13
2019-02-03T18:14:43.821Z,3.67
2019-02-03T18:17:13.734Z,3.77
2019-02-03T18:19:43.659Z,4.17
2019-02-03T18:22:14.348Z,3.50
2019-02-03T18:24:45.077Z,2.93
2019-02-03T18:27:14.842Z,3.10
2019-02-03T18:29:45.499Z,3.20
2019-02-03T18:32:15.466Z,3.87
2019-02-03T18:34:45.294Z,3.10
2019-02-03T18:37:14.922Z,3.60
2019-02-03T18:39:44.712Z,3.33
2019-02-03T18:42:14.485Z,2.30
2019-02-03T18:44:44.184Z,2.90
2019-02-03T18:47:13.950Z,3.00
2019-02-03T18:49:43.730Z,3.17
2019-02-03T18:52:13.571Z,3.30
2019-02-03T18:54:43.385Z,3.00
2019-02-03T18:57:13.057Z,3.93
2019-02-03T18:59:43.013Z,3.13
2019-02-03T19:02:12.808Z,2.90
2019-02-03T19:04:42.456Z,2.90
2019-02-03T19:07:12.239Z,2.80
2019-02-03T19:09:41.946Z,2.97
2019-02-03T19:12:11.686Z,3.10
2019-02-03T19:14:47.428Z,3.17
2019-02-03T19:17:14.214Z,2.83
2019-02-03T19:19:44.255Z,2.87
2019-02-03T19:22:15.801Z,3.00
2019-02-03T19:24:45.578Z,2.90
2019-02-03T19:27:15.412Z,3.20
2019-02-03T19:29:45.274Z,2.90
2019-02-03T19:32:14.973Z,2.80
2019-02-03T19:34:44.774Z,2.97
2019-02-03T19:37:14.406Z,3.00
2019-02-03T19:39:44.453Z,2.70
2019-02-03T19:42:14.173Z,2.43
2019-02-03T19:44:43.963Z,2.70
2019-02-03T19:47:13.813Z,2.93
2019-02-03T19:49:46.727Z,2.60
2019-02-03T19:52:15.102Z,3.13
2019-02-03T19:54:46.997Z,3.10
2019-02-03T19:57:16.303Z,3.53
2019-02-03T19:59:47.075Z,3.50
2019-02-03T20:02:16.856Z,3.10
2019-02-03T20:04:46.654Z,3.13
2019-02-03T20:07:16.466Z,3.13
2019-02-03T20:09:46.512Z,3.17
2019-02-03T20:12:16.334Z,3.20
2019-02-03T20:14:47.118Z,3.30
2019-02-03T20:17:17.086Z,3.33
2019-02-03T20:19:46.982Z,3.37
2019-02-03T20:22:16.726Z,3.67
2019-02-03T20:24:46.465Z,3.70
2019-02-03T20:27:16.247Z,3.70
2019-02-03T20:29:45.930Z,4.00
2019-02-03T20:32:15.813Z,3.33
2019-02-03T20:34:45.502Z,3.10
2019-02-03T20:37:15.329Z,3.00
2019-02-03T20:39:44.958Z,3.00
2019-02-03T20:42:14.700Z,3.60
2019-02-03T20:44:45.491Z,2.90
2019-02-03T20:47:17.322Z,3.27
2019-02-03T20:49:47.133Z,3.87
2019-02-03T20:52:18.027Z,2.80
2019-02-03T20:54:48.694Z,3.03
2019-02-03T20:57:18.557Z,3.50
2019-02-03T20:59:48.414Z,3.37
2019-02-03T21:02:18.226Z,3.40
2019-02-03T21:04:48.041Z,2.70
2019-02-03T21:07:17.674Z,3.40
2019-02-03T21:09:47.482Z,3.40
2019-02-03T21:12:18.272Z,2.90
2019-02-03T21:14:48.001Z,3.20
2019-02-03T21:17:17.808Z,3.53
2019-02-03T21:19:48.682Z,2.43
2019-02-03T21:22:18.423Z,2.67
2019-02-03T21:24:48.189Z,3.30
2019-02-03T21:27:18.178Z,2.63
2019-02-03T21:29:48.009Z,2.83
2019-02-03T21:32:17.902Z,2.80
2019-02-03T21:34:47.710Z,2.43
2019-02-03T21:37:17.552Z,3.00
2019-02-03T21:39:48.766Z,2.70
2019-02-03T21:42:18.570Z,2.87
2019-02-03T21:44:48.509Z,2.73
2019-02-03T21:47:18.134Z,2.63
2019-02-03T21:49:47.933Z,3.97
2019-02-03T21:52:18.685Z,2.83
2019-02-03T21:54:48.409Z,2.37
2019-02-03T21:57:18.181Z,2.50
2019-02-03T21:59:47.866Z,2.77
2019-02-03T22:02:17.864Z,2.50
2019-02-03T22:04:47.719Z,3.20
2019-02-03T22:07:18.856Z,2.90
2019-02-03T22:09:48.657Z,3.40
2019-02-03T22:12:18.460Z,2.87
2019-02-03T22:14:48.234Z,2.40
2019-02-03T22:17:19.109Z,2.77
2019-02-03T22:19:48.707Z,3.00
2019-02-03T22:22:18.502Z,2.67
2019-02-03T22:24:48.348Z,3.70
2019-02-03T22:27:18.141Z,2.97
2019-02-03T22:29:47.949Z,3.00
2019-02-03T22:32:18.736Z,2.80
2019-02-03T22:34:48.491Z,2.90
2019-02-03T22:37:18.362Z,4.10
2019-02-03T22:39:48.108Z,2.70
2019-02-03T22:42:18.024Z,2.70
2019-02-03T22:44:47.952Z,2.47
2019-02-03T22:47:17.918Z,2.87
2019-02-03T22:49:47.689Z,3.60
2019-02-03T22:52:17.493Z,2.83
2019-02-03T22:54:49.598Z,2.40
2019-02-03T22:57:18.630Z,2.70
2019-02-03T22:59:48.686Z,2.90
2019-02-03T23:02:18.442Z,2.47
2019-02-03T23:04:48.261Z,2.47
2019-02-03T23:07:19.778Z,3.13
2019-02-03T23:09:49.537Z,2.60
2019-02-03T23:12:19.128Z,2.90
2019-02-03T23:14:48.806Z,2.60
2019-02-03T23:17:18.577Z,3.00
